sensor_id;sensor_type;location;lat;lon;timestamp;P1;durP1;ratioP1;P2;durP2;ratioP2
3321;SDS011;1673;51.388;7.086;2023-08-21T00:02:21;9.53;;;4.00;;
3321;SDS011;1673;51.388;7.086;2023-08-21T00:04:52;10.23;;;4.30;;
3321;SDS011;1673;51.388;7.086;2023-08-21T00:07:22;17.77;;;4.47;;
3321;SDS011;1673;51.388;7.086;2023-08-21T00:09:52;8.57;;;4.22;;
3321;SDS011;1673;51.388;7.086;2023-08-21T00:12:21;9.40;;;4.35;;
3321;SDS011;1673;51.388;7.086;2023-08-21T00:14:54;11.95;;;4.75;;
3321;SDS011;1673;51.388;7.086;2023-08-21T00:17:23;16.52;;;4.60;;
3321;SDS011;1673;51.388;7.086;2023-08-21T00:19:53;11.35;;;4.40;;
3321;SDS011;1673;51.388;7.086;2023-08-21T00:22:23;10.68;;;4.63;;
3321;SDS011;1673;51.388;7.086;2023-08-21T00:24:53;11.00;;;4.30;;
3321;SDS011;1673;51.388;7.086;2023-08-21T00:27:23;12.63;;;4.40;;
3321;SDS011;1673;51.388;7.086;2023-08-21T00:29:56;11.60;;;4.10;;
3321;SDS011;1673;51.388;7.086;2023-08-21T00:32:26;12.48;;;4.65;;
3321;SDS011;1673;51.388;7.086;2023-08-21T00:34:56;11.77;;;4.72;;
3321;SDS011;1673;51.388;7.086;2023-08-21T00:37:26;12.55;;;4.50;;
3321;SDS011;1673;51.388;7.086;2023-08-21T00:39:55;11.68;;;4.40;;
3321;SDS011;1673;51.388;7.086;2023-08-21T00:42:25;12.13;;;4.20;;
3321;SDS011;1673;51.388;7.086;2023-08-21T00:44:57;15.20;;;5.00;;
3321;SDS011;1673;51.388;7.086;2023-08-21T00:47:27;12.65;;;4.07;;
3321;SDS011;1673;51.388;7.086;2023-08-21T00:49:57;9.20;;;4.40;;
3321;SDS011;1673;51.388;7.086;2023-08-21T00:52:27;9.13;;;4.47;;
3321;SDS011;1673;51.388;7.086;2023-08-21T00:54:57;8.83;;;4.50;;
3321;SDS011;1673;51.388;7.086;2023-08-21T00:57:27;14.55;;;4.60;;
3321;SDS011;1673;51.388;7.086;2023-08-21T00:59:59;10.73;;;4.60;;
3321;SDS011;1673;51.388;7.086;2023-08-21T01:02:30;10.43;;;4.73;;
3321;SDS011;1673;51.388;7.086;2023-08-21T01:05:01;9.77;;;4.65;;
3321;SDS011;1673;51.388;7.086;2023-08-21T01:07:31;9.60;;;4.60;;
3321;SDS011;1673;51.388;7.086;2023-08-21T01:10:04;12.68;;;4.85;;
3321;SDS011;1673;51.388;7.086;2023-08-21T01:12:40;8.98;;;4.30;;
3321;SDS011;1673;51.388;7.086;2023-08-21T01:15:19;10.02;;;4.72;;
3321;SDS011;1673;51.388;7.086;2023-08-21T01:17:49;10.00;;;5.00;;
3321;SDS011;1673;51.388;7.086;2023-08-21T01:20:22;8.18;;;4.97;;
3321;SDS011;1673;51.388;7.086;2023-08-21T01:22:51;8.10;;;4.00;;
3321;SDS011;1673;51.388;7.086;2023-08-21T01:25:24;12.68;;;4.80;;
3321;SDS011;1673;51.388;7.086;2023-08-21T01:27:54;10.93;;;4.45;;
3321;SDS011;1673;51.388;7.086;2023-08-21T01:30:24;11.65;;;4.65;;
3321;SDS011;1673;51.388;7.086;2023-08-21T01:32:58;11.15;;;4.25;;
3321;SDS011;1673;51.388;7.086;2023-08-21T01:35:29;9.90;;;4.90;;
3321;SDS011;1673;51.388;7.086;2023-08-21T01:37:59;8.73;;;4.50;;
3321;SDS011;1673;51.388;7.086;2023-08-21T01:40:32;10.13;;;4.30;;
3321;SDS011;1673;51.388;7.086;2023-08-21T01:43:02;9.13;;;4.40;;
3321;SDS011;1673;51.388;7.086;2023-08-21T01:45:32;11.80;;;4.18;;
3321;SDS011;1673;51.388;7.086;2023-08-21T01:48:02;14.35;;;4.65;;
3321;SDS011;1673;51.388;7.086;2023-08-21T01:50:32;11.43;;;3.70;;
3321;SDS011;1673;51.388;7.086;2023-08-21T01:53:02;14.75;;;4.20;;
3321;SDS011;1673;51.388;7.086;2023-08-21T01:55:35;10.27;;;4.50;;
3321;SDS011;1673;51.388;7.086;2023-08-21T01:58:05;11.90;;;4.47;;
3321;SDS011;1673;51.388;7.086;2023-08-21T02:00:35;10.68;;;4.75;;
3321;SDS011;1673;51.388;7.086;2023-08-21T02:03:04;11.10;;;4.10;;
3321;SDS011;1673;51.388;7.086;2023-08-21T02:05:38;9.90;;;4.78;;
3321;SDS011;1673;51.388;7.086;2023-08-21T02:08:09;10.10;;;4.40;;
3321;SDS011;1673;51.388;7.086;2023-08-21T02:10:51;11.23;;;4.10;;
3321;SDS011;1673;51.388;7.086;2023-08-21T02:13:21;11.43;;;4.50;;
3321;SDS011;1673;51.388;7.086;2023-08-21T02:15:51;13.30;;;4.95;;
3321;SDS011;1673;51.388;7.086;2023-08-21T02:18:21;10.53;;;5.20;;
3321;SDS011;1673;51.388;7.086;2023-08-21T02:20:50;10.88;;;5.20;;
3321;SDS011;1673;51.388;7.086;2023-08-21T02:23:20;10.82;;;5.22;;
3321;SDS011;1673;51.388;7.086;2023-08-21T02:25:53;11.35;;;4.97;;
3321;SDS011;1673;51.388;7.086;2023-08-21T02:28:23;12.10;;;5.22;;
3321;SDS011;1673;51.388;7.086;2023-08-21T02:30:53;12.18;;;5.00;;
3321;SDS011;1673;51.388;7.086;2023-08-21T02:33:23;11.88;;;4.93;;
3321;SDS011;1673;51.388;7.086;2023-08-21T02:35:54;11.43;;;4.68;;
3321;SDS011;1673;51.388;7.086;2023-08-21T02:38:29;10.82;;;4.60;;
3321;SDS011;1673;51.388;7.086;2023-08-21T02:41:02;12.32;;;4.95;;
3321;SDS011;1673;51.388;7.086;2023-08-21T02:43:32;9.63;;;4.35;;
3321;SDS011;1673;51.388;7.086;2023-08-21T02:46:02;12.63;;;4.70;;
3321;SDS011;1673;51.388;7.086;2023-08-21T02:48:31;10.50;;;4.18;;
3321;SDS011;1673;51.388;7.086;2023-08-21T02:51:01;12.50;;;4.85;;
3321;SDS011;1673;51.388;7.086;2023-08-21T02:53:31;12.32;;;5.30;;
3321;SDS011;1673;51.388;7.086;2023-08-21T02:56:04;11.20;;;4.50;;
3321;SDS011;1673;51.388;7.086;2023-08-21T02:58:33;12.13;;;4.50;;
3321;SDS011;1673;51.388;7.086;2023-08-21T03:01:03;11.45;;;4.95;;
3321;SDS011;1673;51.388;7.086;2023-08-21T03:03:33;11.03;;;4.30;;
3321;SDS011;1673;51.388;7.086;2023-08-21T03:06:03;8.65;;;4.70;;
3321;SDS011;1673;51.388;7.086;2023-08-21T03:08:33;12.02;;;4.85;;
3321;SDS011;1673;51.388;7.086;2023-08-21T03:11:06;12.00;;;4.35;;
3321;SDS011;1673;51.388;7.086;2023-08-21T03:13:35;10.60;;;4.80;;
3321;SDS011;1673;51.388;7.086;2023-08-21T03:16:05;12.67;;;4.70;;
3321;SDS011;1673;51.388;7.086;2023-08-21T03:18:41;13.63;;;4.70;;
3321;SDS011;1673;51.388;7.086;2023-08-21T03:21:24;16.80;;;5.00;;
3321;SDS011;1673;51.388;7.086;2023-08-21T03:23:56;11.43;;;4.57;;
3321;SDS011;1673;51.388;7.086;2023-08-21T03:26:33;9.20;;;4.57;;
3321;SDS011;1673;51.388;7.086;2023-08-21T03:29:03;10.23;;;4.60;;
3321;SDS011;1673;51.388;7.086;2023-08-21T03:31:33;8.80;;;4.20;;
3321;SDS011;1673;51.388;7.086;2023-08-21T03:34:02;9.93;;;4.63;;
3321;SDS011;1673;51.388;7.086;2023-08-21T03:36:32;10.80;;;4.70;;
3321;SDS011;1673;51.388;7.086;2023-08-21T03:39:05;9.93;;;4.57;;
3321;SDS011;1673;51.388;7.086;2023-08-21T03:41:43;8.60;;;4.13;;
3321;SDS011;1673;51.388;7.086;2023-08-21T03:44:15;8.75;;;4.30;;
3321;SDS011;1673;51.388;7.086;2023-08-21T03:46:45;11.77;;;4.70;;
3321;SDS011;1673;51.388;7.086;2023-08-21T03:49:15;9.55;;;5.07;;
3321;SDS011;1673;51.388;7.086;2023-08-21T03:51:47;17.20;;;5.23;;
3321;SDS011;1673;51.388;7.086;2023-08-21T03:54:17;11.90;;;4.75;;
3321;SDS011;1673;51.388;7.086;2023-08-21T03:56:50;15.87;;;4.97;;
3321;SDS011;1673;51.388;7.086;2023-08-21T03:59:21;8.55;;;4.35;;
3321;SDS011;1673;51.388;7.086;2023-08-21T04:01:53;12.00;;;5.05;;
3321;SDS011;1673;51.388;7.086;2023-08-21T04:04:23;11.27;;;4.90;;
3321;SDS011;1673;51.388;7.086;2023-08-21T04:06:54;10.02;;;5.38;;
3321;SDS011;1673;51.388;7.086;2023-08-21T04:09:24;9.75;;;4.70;;
3321;SDS011;1673;51.388;7.086;2023-08-21T04:11:56;17.02;;;5.00;;
3321;SDS011;1673;51.388;7.086;2023-08-21T04:14:26;12.98;;;5.20;;
3321;SDS011;1673;51.388;7.086;2023-08-21T04:16:56;11.50;;;5.30;;
3321;SDS011;1673;51.388;7.086;2023-08-21T04:19:26;8.80;;;4.75;;
3321;SDS011;1673;51.388;7.086;2023-08-21T04:22:00;10.37;;;4.33;;
3321;SDS011;1673;51.388;7.086;2023-08-21T04:24:31;11.43;;;4.93;;
3321;SDS011;1673;51.388;7.086;2023-08-21T04:27:03;9.87;;;5.10;;
3321;SDS011;1673;51.388;7.086;2023-08-21T04:29:33;15.88;;;5.40;;
3321;SDS011;1673;51.388;7.086;2023-08-21T04:32:04;12.23;;;4.97;;
3321;SDS011;1673;51.388;7.086;2023-08-21T04:34:35;12.23;;;4.90;;
3321;SDS011;1673;51.388;7.086;2023-08-21T04:37:05;13.27;;;4.90;;
3321;SDS011;1673;51.388;7.086;2023-08-21T04:39:36;9.73;;;5.00;;
3321;SDS011;1673;51.388;7.086;2023-08-21T04:42:09;10.90;;;5.22;;
3321;SDS011;1673;51.388;7.086;2023-08-21T04:44:39;14.75;;;4.47;;
3321;SDS011;1673;51.388;7.086;2023-08-21T04:47:20;12.82;;;4.30;;
3321;SDS011;1673;51.388;7.086;2023-08-21T04:49:55;8.45;;;4.55;;
3321;SDS011;1673;51.388;7.086;2023-08-21T04:52:27;11.85;;;5.13;;
3321;SDS011;1673;51.388;7.086;2023-08-21T04:54:58;10.18;;;4.75;;
3321;SDS011;1673;51.388;7.086;2023-08-21T04:57:34;13.50;;;4.50;;
3321;SDS011;1673;51.388;7.086;2023-08-21T05:00:07;15.27;;;6.03;;
3321;SDS011;1673;51.388;7.086;2023-08-21T05:02:41;9.05;;;4.80;;
3321;SDS011;1673;51.388;7.086;2023-08-21T05:05:11;11.77;;;5.05;;
3321;SDS011;1673;51.388;7.086;2023-08-21T05:07:41;12.15;;;5.47;;
3321;SDS011;1673;51.388;7.086;2023-08-21T05:10:11;12.85;;;5.43;;
3321;SDS011;1673;51.388;7.086;2023-08-21T05:12:45;13.55;;;5.53;;
3321;SDS011;1673;51.388;7.086;2023-08-21T05:15:16;9.97;;;4.70;;
3321;SDS011;1673;51.388;7.086;2023-08-21T05:17:46;10.07;;;4.80;;
3321;SDS011;1673;51.388;7.086;2023-08-21T05:20:20;9.50;;;5.40;;
3321;SDS011;1673;51.388;7.086;2023-08-21T05:22:49;10.75;;;5.28;;
3321;SDS011;1673;51.388;7.086;2023-08-21T05:25:19;10.20;;;4.60;;
3321;SDS011;1673;51.388;7.086;2023-08-21T05:27:52;8.63;;;4.60;;
3321;SDS011;1673;51.388;7.086;2023-08-21T05:30:21;10.75;;;5.05;;
3321;SDS011;1673;51.388;7.086;2023-08-21T05:32:51;10.82;;;5.30;;
3321;SDS011;1673;51.388;7.086;2023-08-21T05:35:22;12.30;;;5.50;;
3321;SDS011;1673;51.388;7.086;2023-08-21T05:37:53;10.80;;;5.40;;
3321;SDS011;1673;51.388;7.086;2023-08-21T05:40:23;13.33;;;5.60;;
3321;SDS011;1673;51.388;7.086;2023-08-21T05:42:58;16.38;;;5.50;;
3321;SDS011;1673;51.388;7.086;2023-08-21T05:46:09;13.60;;;6.17;;
3321;SDS011;1673;51.388;7.086;2023-08-21T05:48:39;13.30;;;5.35;;
3321;SDS011;1673;51.388;7.086;2023-08-21T05:51:09;11.60;;;5.40;;
3321;SDS011;1673;51.388;7.086;2023-08-21T05:53:39;9.77;;;5.40;;
3321;SDS011;1673;51.388;7.086;2023-08-21T05:56:09;14.77;;;5.93;;
3321;SDS011;1673;51.388;7.086;2023-08-21T05:58:41;15.10;;;6.10;;
3321;SDS011;1673;51.388;7.086;2023-08-21T06:01:11;14.32;;;5.53;;
3321;SDS011;1673;51.388;7.086;2023-08-21T06:03:41;12.45;;;5.97;;
3321;SDS011;1673;51.388;7.086;2023-08-21T06:06:29;12.90;;;6.10;;
3321;SDS011;1673;51.388;7.086;2023-08-21T06:08:58;13.90;;;5.65;;
3321;SDS011;1673;51.388;7.086;2023-08-21T06:11:29;10.38;;;5.80;;
3321;SDS011;1673;51.388;7.086;2023-08-21T06:14:02;16.27;;;5.80;;
3321;SDS011;1673;51.388;7.086;2023-08-21T06:16:32;11.63;;;5.30;;
3321;SDS011;1673;51.388;7.086;2023-08-21T06:19:04;13.40;;;5.30;;
3321;SDS011;1673;51.388;7.086;2023-08-21T06:21:34;13.93;;;5.40;;
3321;SDS011;1673;51.388;7.086;2023-08-21T06:24:04;13.20;;;4.93;;
3321;SDS011;1673;51.388;7.086;2023-08-21T06:26:34;11.15;;;5.57;;
3321;SDS011;1673;51.388;7.086;2023-08-21T06:29:06;11.35;;;5.53;;
3321;SDS011;1673;51.388;7.086;2023-08-21T06:31:36;16.20;;;5.80;;
3321;SDS011;1673;51.388;7.086;2023-08-21T06:34:06;9.63;;;5.60;;
3321;SDS011;1673;51.388;7.086;2023-08-21T06:36:36;14.93;;;6.25;;
3321;SDS011;1673;51.388;7.086;2023-08-21T06:39:05;14.10;;;5.88;;
3321;SDS011;1673;51.388;7.086;2023-08-21T06:41:35;12.82;;;6.10;;
3321;SDS011;1673;51.388;7.086;2023-08-21T06:44:07;14.18;;;6.40;;
3321;SDS011;1673;51.388;7.086;2023-08-21T06:46:37;16.30;;;6.40;;
3321;SDS011;1673;51.388;7.086;2023-08-21T06:49:07;13.00;;;6.83;;
3321;SDS011;1673;51.388;7.086;2023-08-21T06:51:37;15.90;;;6.40;;
3321;SDS011;1673;51.388;7.086;2023-08-21T06:54:07;13.98;;;6.50;;
3321;SDS011;1673;51.388;7.086;2023-08-21T06:56:36;12.60;;;6.40;;
3321;SDS011;1673;51.388;7.086;2023-08-21T06:59:09;12.65;;;6.70;;
3321;SDS011;1673;51.388;7.086;2023-08-21T07:01:38;18.70;;;7.07;;
3321;SDS011;1673;51.388;7.086;2023-08-21T07:04:08;16.90;;;6.97;;
3321;SDS011;1673;51.388;7.086;2023-08-21T07:06:38;11.93;;;7.15;;
3321;SDS011;1673;51.388;7.086;2023-08-21T07:09:07;13.68;;;6.10;;
3321;SDS011;1673;51.388;7.086;2023-08-21T07:11:37;14.93;;;5.97;;
3321;SDS011;1673;51.388;7.086;2023-08-21T07:14:10;16.50;;;7.30;;
3321;SDS011;1673;51.388;7.086;2023-08-21T07:16:40;15.50;;;6.10;;
3321;SDS011;1673;51.388;7.086;2023-08-21T07:19:10;12.18;;;5.93;;
3321;SDS011;1673;51.388;7.086;2023-08-21T07:21:40;15.20;;;5.68;;
3321;SDS011;1673;51.388;7.086;2023-08-21T07:24:09;14.55;;;5.03;;
3321;SDS011;1673;51.388;7.086;2023-08-21T07:26:39;9.48;;;4.90;;
3321;SDS011;1673;51.388;7.086;2023-08-21T07:29:12;8.80;;;4.50;;
3321;SDS011;1673;51.388;7.086;2023-08-21T07:31:42;10.80;;;4.20;;
3321;SDS011;1673;51.388;7.086;2023-08-21T07:34:11;19.02;;;5.15;;
3321;SDS011;1673;51.388;7.086;2023-08-21T07:36:41;10.60;;;4.03;;
3321;SDS011;1673;51.388;7.086;2023-08-21T07:39:11;8.82;;;4.40;;
3321;SDS011;1673;51.388;7.086;2023-08-21T07:41:41;16.10;;;5.03;;
3321;SDS011;1673;51.388;7.086;2023-08-21T07:44:13;13.32;;;4.60;;
3321;SDS011;1673;51.388;7.086;2023-08-21T07:46:43;13.75;;;5.13;;
3321;SDS011;1673;51.388;7.086;2023-08-21T07:49:13;9.10;;;4.35;;
3321;SDS011;1673;51.388;7.086;2023-08-21T07:51:43;15.00;;;5.30;;
3321;SDS011;1673;51.388;7.086;2023-08-21T07:54:13;15.98;;;5.93;;
3321;SDS011;1673;51.388;7.086;2023-08-21T07:56:43;14.35;;;4.95;;
3321;SDS011;1673;51.388;7.086;2023-08-21T07:59:15;12.23;;;4.38;;
3321;SDS011;1673;51.388;7.086;2023-08-21T08:01:46;14.97;;;4.77;;
3321;SDS011;1673;51.388;7.086;2023-08-21T08:04:16;9.88;;;4.20;;
3321;SDS011;1673;51.388;7.086;2023-08-21T08:06:46;14.98;;;4.80;;
3321;SDS011;1673;51.388;7.086;2023-08-21T08:09:16;13.52;;;4.47;;
3321;SDS011;1673;51.388;7.086;2023-08-21T08:11:46;12.50;;;5.40;;
3321;SDS011;1673;51.388;7.086;2023-08-21T08:14:19;10.98;;;4.97;;
3321;SDS011;1673;51.388;7.086;2023-08-21T08:16:48;9.68;;;4.60;;
3321;SDS011;1673;51.388;7.086;2023-08-21T08:19:18;11.35;;;4.72;;
3321;SDS011;1673;51.388;7.086;2023-08-21T08:21:48;11.35;;;4.88;;
3321;SDS011;1673;51.388;7.086;2023-08-21T08:24:18;10.40;;;4.50;;
3321;SDS011;1673;51.388;7.086;2023-08-21T08:26:48;15.48;;;4.70;;
3321;SDS011;1673;51.388;7.086;2023-08-21T08:29:20;11.15;;;4.30;;
3321;SDS011;1673;51.388;7.086;2023-08-21T08:31:50;9.02;;;4.00;;
3321;SDS011;1673;51.388;7.086;2023-08-21T08:34:20;9.13;;;4.90;;
3321;SDS011;1673;51.388;7.086;2023-08-21T08:36:49;11.55;;;3.80;;
3321;SDS011;1673;51.388;7.086;2023-08-21T08:39:19;8.87;;;4.10;;
3321;SDS011;1673;51.388;7.086;2023-08-21T08:41:50;13.18;;;4.20;;
3321;SDS011;1673;51.388;7.086;2023-08-21T08:44:26;11.07;;;3.80;;
3321;SDS011;1673;51.388;7.086;2023-08-21T08:46:56;10.07;;;3.90;;
3321;SDS011;1673;51.388;7.086;2023-08-21T08:49:27;13.32;;;3.97;;
3321;SDS011;1673;51.388;7.086;2023-08-21T08:51:57;8.63;;;3.90;;
3321;SDS011;1673;51.388;7.086;2023-08-21T08:54:27;12.18;;;4.47;;
3321;SDS011;1673;51.388;7.086;2023-08-21T08:56:57;15.18;;;4.53;;
3321;SDS011;1673;51.388;7.086;2023-08-21T08:59:32;10.45;;;4.30;;
3321;SDS011;1673;51.388;7.086;2023-08-21T09:02:02;11.40;;;4.70;;
3321;SDS011;1673;51.388;7.086;2023-08-21T09:04:32;9.98;;;5.10;;
3321;SDS011;1673;51.388;7.086;2023-08-21T09:07:08;15.32;;;4.97;;
3321;SDS011;1673;51.388;7.086;2023-08-21T09:09:38;9.05;;;4.20;;
3321;SDS011;1673;51.388;7.086;2023-08-21T09:12:09;11.13;;;4.40;;
3321;SDS011;1673;51.388;7.086;2023-08-21T09:14:43;11.98;;;4.10;;
3321;SDS011;1673;51.388;7.086;2023-08-21T09:17:14;10.98;;;4.50;;
3321;SDS011;1673;51.388;7.086;2023-08-21T09:19:44;12.70;;;3.97;;
3321;SDS011;1673;51.388;7.086;2023-08-21T09:22:14;12.07;;;4.40;;
3321;SDS011;1673;51.388;7.086;2023-08-21T09:24:59;11.55;;;4.20;;
3321;SDS011;1673;51.388;7.086;2023-08-21T09:27:33;9.38;;;4.40;;
3321;SDS011;1673;51.388;7.086;2023-08-21T09:30:08;11.80;;;5.00;;
3321;SDS011;1673;51.388;7.086;2023-08-21T09:32:51;16.17;;;4.60;;
3321;SDS011;1673;51.388;7.086;2023-08-21T09:35:23;12.77;;;4.45;;
3321;SDS011;1673;51.388;7.086;2023-08-21T09:37:53;14.33;;;4.87;;
3321;SDS011;1673;51.388;7.086;2023-08-21T09:40:22;10.30;;;4.70;;
3321;SDS011;1673;51.388;7.086;2023-08-21T09:42:52;10.77;;;4.80;;
3321;SDS011;1673;51.388;7.086;2023-08-21T09:45:26;12.02;;;4.78;;
3321;SDS011;1673;51.388;7.086;2023-08-21T09:47:57;10.55;;;3.80;;
3321;SDS011;1673;51.388;7.086;2023-08-21T09:50:28;11.40;;;4.13;;
3321;SDS011;1673;51.388;7.086;2023-08-21T09:52:59;10.03;;;3.90;;
3321;SDS011;1673;51.388;7.086;2023-08-21T09:55:29;11.25;;;4.05;;
3321;SDS011;1673;51.388;7.086;2023-08-21T09:58:00;9.57;;;3.30;;
3321;SDS011;1673;51.388;7.086;2023-08-21T10:00:34;11.80;;;4.28;;
3321;SDS011;1673;51.388;7.086;2023-08-21T10:03:06;9.33;;;3.27;;
3321;SDS011;1673;51.388;7.086;2023-08-21T10:05:37;10.35;;;3.35;;
3321;SDS011;1673;51.388;7.086;2023-08-21T10:08:08;11.88;;;3.60;;
3321;SDS011;1673;51.388;7.086;2023-08-21T10:10:38;10.27;;;3.87;;
3321;SDS011;1673;51.388;7.086;2023-08-21T10:13:08;13.88;;;3.45;;
3321;SDS011;1673;51.388;7.086;2023-08-21T10:15:40;11.52;;;3.60;;
3321;SDS011;1673;51.388;7.086;2023-08-21T10:18:17;9.10;;;4.10;;
3321;SDS011;1673;51.388;7.086;2023-08-21T10:20:48;13.50;;;4.43;;
3321;SDS011;1673;51.388;7.086;2023-08-21T10:23:24;8.75;;;3.80;;
3321;SDS011;1673;51.388;7.086;2023-08-21T10:25:55;7.97;;;3.50;;
3321;SDS011;1673;51.388;7.086;2023-08-21T10:31:33;10.73;;;4.47;;
3321;SDS011;1673;51.388;7.086;2023-08-21T10:34:06;9.95;;;4.53;;
3321;SDS011;1673;51.388;7.086;2023-08-21T10:36:37;10.98;;;4.40;;
3321;SDS011;1673;51.388;7.086;2023-08-21T10:39:25;13.05;;;4.10;;
3321;SDS011;1673;51.388;7.086;2023-08-21T10:41:58;14.52;;;5.00;;
3321;SDS011;1673;51.388;7.086;2023-08-21T10:44:36;14.07;;;5.00;;
3321;SDS011;1673;51.388;7.086;2023-08-21T10:47:17;13.87;;;5.40;;
3321;SDS011;1673;51.388;7.086;2023-08-21T10:49:51;13.80;;;5.33;;
3321;SDS011;1673;51.388;7.086;2023-08-21T10:52:24;10.70;;;4.47;;
3321;SDS011;1673;51.388;7.086;2023-08-21T10:55:06;11.27;;;5.13;;
3321;SDS011;1673;51.388;7.086;2023-08-21T10:57:38;9.77;;;5.10;;
3321;SDS011;1673;51.388;7.086;2023-08-21T11:00:10;9.20;;;5.20;;
3321;SDS011;1673;51.388;7.086;2023-08-21T11:02:45;11.77;;;4.90;;
3321;SDS011;1673;51.388;7.086;2023-08-21T11:05:16;13.60;;;5.50;;
3321;SDS011;1673;51.388;7.086;2023-08-21T11:07:47;10.57;;;4.85;;
3321;SDS011;1673;51.388;7.086;2023-08-21T11:10:18;13.65;;;5.70;;
3321;SDS011;1673;51.388;7.086;2023-08-21T11:12:51;12.40;;;5.03;;
3321;SDS011;1673;51.388;7.086;2023-08-21T11:15:22;11.53;;;5.20;;
3321;SDS011;1673;51.388;7.086;2023-08-21T11:17:56;10.68;;;5.10;;
3321;SDS011;1673;51.388;7.086;2023-08-21T11:20:28;13.77;;;5.60;;
3321;SDS011;1673;51.388;7.086;2023-08-21T11:22:58;9.30;;;4.30;;
3321;SDS011;1673;51.388;7.086;2023-08-21T11:25:29;9.75;;;4.07;;
3321;SDS011;1673;51.388;7.086;2023-08-21T11:27:59;9.82;;;4.15;;
3321;SDS011;1673;51.388;7.086;2023-08-21T11:30:30;12.35;;;4.70;;
3321;SDS011;1673;51.388;7.086;2023-08-21T11:33:09;10.88;;;5.30;;
3321;SDS011;1673;51.388;7.086;2023-08-21T11:35:40;10.60;;;5.00;;
3321;SDS011;1673;51.388;7.086;2023-08-21T11:38:15;16.08;;;5.70;;
3321;SDS011;1673;51.388;7.086;2023-08-21T11:40:52;13.10;;;5.28;;
3321;SDS011;1673;51.388;7.086;2023-08-21T11:43:22;10.30;;;3.97;;
3321;SDS011;1673;51.388;7.086;2023-08-21T11:45:52;9.35;;;3.60;;
3321;SDS011;1673;51.388;7.086;2023-08-21T11:48:27;12.65;;;4.28;;
3321;SDS011;1673;51.388;7.086;2023-08-21T11:50:57;11.07;;;4.63;;
3321;SDS011;1673;51.388;7.086;2023-08-21T11:53:31;9.45;;;4.20;;
3321;SDS011;1673;51.388;7.086;2023-08-21T11:56:01;12.52;;;3.80;;
3321;SDS011;1673;51.388;7.086;2023-08-21T11:58:31;9.05;;;4.40;;
3321;SDS011;1673;51.388;7.086;2023-08-21T12:01:02;8.90;;;3.72;;
3321;SDS011;1673;51.388;7.086;2023-08-21T12:03:39;11.18;;;3.90;;
3321;SDS011;1673;51.388;7.086;2023-08-21T12:06:09;9.80;;;3.53;;
3321;SDS011;1673;51.388;7.086;2023-08-21T12:08:40;8.90;;;3.22;;
3321;SDS011;1673;51.388;7.086;2023-08-21T12:11:10;9.95;;;3.40;;
3321;SDS011;1673;51.388;7.086;2023-08-21T12:13:40;10.27;;;3.50;;
3321;SDS011;1673;51.388;7.086;2023-08-21T12:16:09;9.45;;;3.50;;
3321;SDS011;1673;51.388;7.086;2023-08-21T12:18:42;8.00;;;3.58;;
3321;SDS011;1673;51.388;7.086;2023-08-21T12:21:11;11.32;;;3.70;;
3321;SDS011;1673;51.388;7.086;2023-08-21T12:23:41;9.38;;;3.50;;
3321;SDS011;1673;51.388;7.086;2023-08-21T12:26:11;11.30;;;3.10;;
3321;SDS011;1673;51.388;7.086;2023-08-21T12:28:47;8.70;;;3.00;;
3321;SDS011;1673;51.388;7.086;2023-08-21T12:31:17;8.13;;;3.40;;
3321;SDS011;1673;51.388;7.086;2023-08-21T12:33:50;10.15;;;3.25;;
3321;SDS011;1673;51.388;7.086;2023-08-21T12:36:20;11.82;;;4.00;;
3321;SDS011;1673;51.388;7.086;2023-08-21T12:38:50;10.13;;;3.45;;
3321;SDS011;1673;51.388;7.086;2023-08-21T12:41:19;10.50;;;4.00;;
3321;SDS011;1673;51.388;7.086;2023-08-21T12:43:49;9.38;;;3.20;;
3321;SDS011;1673;51.388;7.086;2023-08-21T12:46:19;8.15;;;3.63;;
3321;SDS011;1673;51.388;7.086;2023-08-21T12:48:52;12.45;;;3.95;;
3321;SDS011;1673;51.388;7.086;2023-08-21T12:51:21;7.95;;;3.30;;
3321;SDS011;1673;51.388;7.086;2023-08-21T12:53:51;8.45;;;3.30;;
3321;SDS011;1673;51.388;7.086;2023-08-21T12:56:21;7.10;;;3.40;;
3321;SDS011;1673;51.388;7.086;2023-08-21T12:58:51;10.23;;;3.83;;
3321;SDS011;1673;51.388;7.086;2023-08-21T13:01:21;12.90;;;3.70;;
3321;SDS011;1673;51.388;7.086;2023-08-21T13:03:53;9.88;;;3.45;;
3321;SDS011;1673;51.388;7.086;2023-08-21T13:06:23;9.00;;;3.70;;
3321;SDS011;1673;51.388;7.086;2023-08-21T13:08:53;8.40;;;3.63;;
3321;SDS011;1673;51.388;7.086;2023-08-21T13:11:23;14.80;;;3.90;;
3321;SDS011;1673;51.388;7.086;2023-08-21T13:13:53;10.57;;;3.75;;
3321;SDS011;1673;51.388;7.086;2023-08-21T13:16:23;10.25;;;4.00;;
3321;SDS011;1673;51.388;7.086;2023-08-21T13:18:55;10.07;;;4.25;;
3321;SDS011;1673;51.388;7.086;2023-08-21T13:21:25;8.25;;;4.35;;
3321;SDS011;1673;51.388;7.086;2023-08-21T13:23:55;10.10;;;3.78;;
3321;SDS011;1673;51.388;7.086;2023-08-21T13:26:28;7.70;;;3.50;;
3321;SDS011;1673;51.388;7.086;2023-08-21T13:28:59;11.13;;;3.70;;
3321;SDS011;1673;51.388;7.086;2023-08-21T13:31:45;11.13;;;3.65;;
3321;SDS011;1673;51.388;7.086;2023-08-21T13:37:42;8.88;;;3.30;;
3321;SDS011;1673;51.388;7.086;2023-08-21T13:40:12;8.32;;;3.25;;
3321;SDS011;1673;51.388;7.086;2023-08-21T13:42:43;8.73;;;3.40;;
3321;SDS011;1673;51.388;7.086;2023-08-21T13:45:14;7.90;;;3.17;;
3321;SDS011;1673;51.388;7.086;2023-08-21T13:47:47;9.90;;;3.40;;
3321;SDS011;1673;51.388;7.086;2023-08-21T13:50:20;11.88;;;3.50;;
3321;SDS011;1673;51.388;7.086;2023-08-21T13:52:50;8.57;;;3.33;;
3321;SDS011;1673;51.388;7.086;2023-08-21T13:55:19;11.70;;;3.05;;
3321;SDS011;1673;51.388;7.086;2023-08-21T13:57:49;8.73;;;3.70;;
3321;SDS011;1673;51.388;7.086;2023-08-21T14:00:19;8.85;;;2.90;;
3321;SDS011;1673;51.388;7.086;2023-08-21T14:02:49;9.13;;;3.30;;
3321;SDS011;1673;51.388;7.086;2023-08-21T14:05:22;9.82;;;3.35;;
3321;SDS011;1673;51.388;7.086;2023-08-21T14:07:52;8.45;;;2.90;;
3321;SDS011;1673;51.388;7.086;2023-08-21T14:10:22;14.32;;;3.60;;
3321;SDS011;1673;51.388;7.086;2023-08-21T14:12:52;8.82;;;3.22;;
3321;SDS011;1673;51.388;7.086;2023-08-21T14:15:23;8.10;;;3.37;;
3321;SDS011;1673;51.388;7.086;2023-08-21T14:17:53;7.35;;;3.20;;
3321;SDS011;1673;51.388;7.086;2023-08-21T14:20:25;9.68;;;3.17;;
3321;SDS011;1673;51.388;7.086;2023-08-21T14:22:55;9.73;;;3.10;;
3321;SDS011;1673;51.388;7.086;2023-08-21T14:25:25;10.30;;;3.08;;
3321;SDS011;1673;51.388;7.086;2023-08-21T14:27:55;8.50;;;2.50;;
3321;SDS011;1673;51.388;7.086;2023-08-21T14:30:25;9.50;;;2.90;;
3321;SDS011;1673;51.388;7.086;2023-08-21T14:32:54;10.95;;;3.40;;
3321;SDS011;1673;51.388;7.086;2023-08-21T14:35:27;7.43;;;2.60;;
3321;SDS011;1673;51.388;7.086;2023-08-21T14:37:56;8.32;;;2.53;;
3321;SDS011;1673;51.388;7.086;2023-08-21T14:40:26;7.65;;;3.08;;
3321;SDS011;1673;51.388;7.086;2023-08-21T14:42:56;9.30;;;2.65;;
3321;SDS011;1673;51.388;7.086;2023-08-21T14:45:26;9.07;;;2.90;;
3321;SDS011;1673;51.388;7.086;2023-08-21T14:47:56;8.43;;;2.70;;
3321;SDS011;1673;51.388;7.086;2023-08-21T14:50:28;7.95;;;2.90;;
3321;SDS011;1673;51.388;7.086;2023-08-21T14:53:03;8.57;;;2.50;;
3321;SDS011;1673;51.388;7.086;2023-08-21T14:55:39;8.85;;;3.30;;
3321;SDS011;1673;51.388;7.086;2023-08-21T14:58:15;8.90;;;2.90;;
3321;SDS011;1673;51.388;7.086;2023-08-21T15:00:48;7.43;;;2.50;;
3321;SDS011;1673;51.388;7.086;2023-08-21T15:03:18;11.00;;;3.20;;
3321;SDS011;1673;51.388;7.086;2023-08-21T15:05:51;9.35;;;2.92;;
3321;SDS011;1673;51.388;7.086;2023-08-21T15:08:21;9.32;;;2.63;;
3321;SDS011;1673;51.388;7.086;2023-08-21T15:10:50;8.82;;;2.92;;
3321;SDS011;1673;51.388;7.086;2023-08-21T15:13:20;9.00;;;3.00;;
3321;SDS011;1673;51.388;7.086;2023-08-21T15:15:50;6.47;;;3.03;;
3321;SDS011;1673;51.388;7.086;2023-08-21T15:18:20;10.55;;;3.25;;
3321;SDS011;1673;51.388;7.086;2023-08-21T15:20:52;9.95;;;2.90;;
3321;SDS011;1673;51.388;7.086;2023-08-21T15:23:22;5.72;;;2.80;;
3321;SDS011;1673;51.388;7.086;2023-08-21T15:25:53;9.00;;;3.05;;
3321;SDS011;1673;51.388;7.086;2023-08-21T15:28:23;8.52;;;2.90;;
3321;SDS011;1673;51.388;7.086;2023-08-21T15:30:52;7.75;;;2.72;;
3321;SDS011;1673;51.388;7.086;2023-08-21T15:33:22;9.57;;;2.90;;
3321;SDS011;1673;51.388;7.086;2023-08-21T15:35:54;10.00;;;2.90;;
3321;SDS011;1673;51.388;7.086;2023-08-21T15:38:24;7.80;;;2.80;;